Time;durP1;ratioP1;P1;durP2;ratioP2;P2;SDS_P1;SDS_P2;PMS_P1;PMS_P2;Temp;Humidity;BMP_temperature;BMP_pressure;BME280_temperature;BME280_humidity;BME280_pressure;Samples;Min_cycle;Max_cycle;Signal;HPM_P1;HPM_P2
2021/12/31 20:32:05;;;;;;;6.32;3.85;;;0.30;99.90;;;;;;5095466;27;20139;-77
2021/12/31 20:34:33;;;;;;;5.22;3.20;;;0.30;99.90;;;;;;5102873;28;20087;-73
2021/12/31 20:37:00;;;;;;;3.85;2.80;;;0.30;99.90;;;;;;5099056;28;20044;-76
2021/12/31 20:39:28;;;;;;;3.22;2.45;;;0.40;99.90;;;;;;5089915;28;20048;-76
2021/12/31 20:41:55;;;;;;;3.10;2.75;;;0.40;99.90;;;;;;5103971;28;20051;-80
2021/12/31 20:44:23;;;;;;;3.90;2.90;;;0.50;99.90;;;;;;5096038;28;20059;-79
2021/12/31 20:46:51;;;;;;;3.63;3.20;;;0.60;99.90;;;;;;5102222;28;20062;-79
2021/12/31 20:49:20;;;;;;;3.67;3.10;;;0.60;99.90;;;;;;5100157;28;20044;-84
2021/12/31 20:51:50;;;;;;;3.22;2.95;;;0.70;99.90;;;;;;5105435;28;20589;-79
2021/12/31 20:54:18;;;;;;;3.85;3.17;;;0.70;99.90;;;;;;5091855;28;20059;-81
2021/12/31 20:56:45;;;;;;;4.30;3.47;;;0.70;99.90;;;;;;5090404;28;20047;-79
2021/12/31 20:59:12;;;;;;;4.43;3.88;;;0.70;99.90;;;;;;5084870;28;20143;-80
2021/12/31 21:01:40;;;;;;;5.10;4.60;;;0.70;99.90;;;;;;5099167;28;20101;-77
2021/12/31 21:04:08;;;;;;;5.10;4.60;;;0.70;99.90;;;;;;5109460;28;20067;-78
2021/12/31 21:06:37;;;;;;;8.25;5.85;;;0.80;99.90;;;;;;5108659;28;20044;-79
2021/12/31 21:09:05;;;;;;;4.55;4.00;;;0.80;99.90;;;;;;5086694;28;20520;-80
2021/12/31 21:11:33;;;;;;;5.35;4.38;;;0.80;99.90;;;;;;5087668;28;20051;-82
2021/12/31 21:14:02;;;;;;;8.70;4.00;;;0.80;99.90;;;;;;5101356;28;20116;-76
2021/12/31 21:16:30;;;;;;;5.53;4.43;;;0.80;99.90;;;;;;5092003;28;20097;-79
2021/12/31 21:18:57;;;;;;;3.72;3.38;;;0.80;99.90;;;;;;5090846;28;20048;-80
2021/12/31 21:21:25;;;;;;;6.35;4.20;;;0.80;99.90;;;;;;5096017;28;20513;-78
2021/12/31 21:23:53;;;;;;;8.43;3.97;;;0.80;99.90;;;;;;5102895;28;20050;-78
2021/12/31 21:26:21;;;;;;;6.07;4.25;;;0.80;99.90;;;;;;5089829;28;20051;-83
2021/12/31 21:28:48;;;;;;;6.80;4.32;;;0.80;99.90;;;;;;5100405;28;20142;-77
2021/12/31 21:31:16;;;;;;;1999.90;999.90;;;0.80;99.90;;;;;;5085789;28;20056;-84
2021/12/31 21:33:44;;;;;;;6.90;4.82;;;0.90;99.90;;;;;;5105552;28;20044;-86
2021/12/31 21:36:12;;;;;;;5.63;4.47;;;0.80;99.90;;;;;;5098576;28;20073;-88
2021/12/31 21:38:43;;;;;;;7.68;5.80;;;0.80;99.90;;;;;;5088240;28;20036;-78
2021/12/31 21:41:13;;;;;;;7.25;5.22;;;0.80;99.90;;;;;;5102759;28;20075;-79
2021/12/31 21:43:46;;;;;;;6.75;5.00;;;0.80;99.90;;;;;;5085483;28;20040;-80
2021/12/31 21:46:13;;;;;;;7.50;4.75;;;0.80;99.90;;;;;;5075464;28;20071;-80
2021/12/31 21:48:40;;;;;;;9.77;7.30;;;0.90;99.90;;;;;;5075711;28;20083;-80
2021/12/31 21:51:09;;;;;;;16.50;11.02;;;0.90;99.90;;;;;;5083139;28;20155;-80
2021/12/31 21:53:37;;;;;;;310.42;116.03;;;0.90;99.90;;;;;;5092263;28;20106;-77
2021/12/31 21:56:05;;;;;;;1999.90;999.90;;;0.90;99.90;;;;;;5086982;28;20063;-78
2021/12/31 21:58:34;;;;;;;33.35;19.15;;;0.90;99.90;;;;;;5089267;28;20420;-79
2021/12/31 22:01:01;;;;;;;37.47;23.30;;;0.80;99.90;;;;;;5068941;28;20417;-82
2021/12/31 22:03:29;;;;;;;29.15;18.83;;;0.80;99.90;;;;;;5075181;28;20425;-78
2021/12/31 22:05:57;;;;;;;39.17;23.35;;;0.80;99.90;;;;;;5079836;28;20060;-78
2021/12/31 22:08:25;;;;;;;33.00;21.17;;;0.80;99.90;;;;;;5069015;28;20114;-75
2021/12/31 22:10:52;;;;;;;35.60;22.88;;;0.80;99.90;;;;;;5070104;28;20060;-79
2021/12/31 22:13:22;;;;;;;37.53;22.08;;;0.80;99.90;;;;;;5075968;28;20086;-79
2021/12/31 22:15:51;;;;;;;43.22;24.30;;;0.80;99.90;;;;;;5083674;28;20057;-80
2021/12/31 22:18:23;;;;;;;37.97;21.90;;;0.80;99.90;;;;;;5091356;28;20048;-81
2021/12/31 22:20:52;;;;;;;;;;;0.80;99.90;;;;;;5073045;28;20052;-83
2021/12/31 22:23:19;;;;;;;40.05;24.08;;;0.80;99.90;;;;;;5073443;28;19924;-81
2021/12/31 22:25:47;;;;;;;30.02;17.35;;;0.80;99.90;;;;;;5079487;28;20105;-79
2021/12/31 22:28:19;;;;;;;33.95;21.45;;;0.80;99.90;;;;;;5090024;28;20496;-78
2021/12/31 22:30:54;;;;;;;30.10;17.77;;;0.90;99.90;;;;;;5076113;28;20059;-79
2021/12/31 22:33:21;;;;;;;30.08;17.58;;;0.90;99.90;;;;;;5070105;28;20408;-75
2021/12/31 22:35:50;;;;;;;35.22;20.50;;;1.00;99.90;;;;;;5068004;28;20149;-77
2021/12/31 22:38:17;;;;;;;25.88;15.63;;;1.00;99.90;;;;;;5094628;28;20535;-79
2021/12/31 22:40:45;;;;;;;17.73;10.88;;;0.90;99.90;;;;;;5075536;28;20040;-76
2021/12/31 22:43:12;;;;;;;17.15;10.20;;;1.00;99.90;;;;;;5081739;28;20044;-79
2021/12/31 22:45:40;;;;;;;18.48;11.95;;;0.90;99.90;;;;;;5064953;28;20551;-78
2021/12/31 22:48:09;;;;;;;16.80;11.55;;;0.90;99.90;;;;;;5074492;28;20053;-77
2021/12/31 22:50:36;;;;;;;17.02;12.00;;;1.00;99.90;;;;;;5077026;28;20442;-76
2021/12/31 22:53:04;;;;;;;24.75;15.77;;;1.00;99.90;;;;;;5080691;28;20048;-76
2021/12/31 22:55:32;;;;;;;95.95;28.55;;;1.00;99.90;;;;;;5073534;28;20052;-78
2021/12/31 22:58:00;;;;;;;39.75;24.20;;;1.00;99.90;;;;;;5082085;28;20117;-77
2021/12/31 23:01:18;;;;;;;74.85;25.95;;;1.00;99.90;;;;;;5073753;28;20101;-81
2021/12/31 23:03:50;;;;;;;59.35;16.40;;;1.00;99.90;;;;;;5075015;28;20385;-78
2021/12/31 23:06:22;;;;;;;23.33;16.10;;;1.00;99.90;;;;;;5085179;28;20134;-77
2021/12/31 23:08:53;;;;;;;24.15;14.65;;;1.00;99.90;;;;;;5082664;28;20155;-77
2021/12/31 23:11:22;;;;;;;19.80;13.73;;;1.00;99.90;;;;;;5080558;28;20412;-77
2021/12/31 23:13:52;;;;;;;23.02;14.05;;;0.90;99.90;;;;;;5072160;28;20049;-78
2021/12/31 23:16:20;;;;;;;22.55;15.00;;;0.90;99.90;;;;;;5068005;28;20054;-76
2021/12/31 23:18:51;;;;;;;24.73;16.35;;;0.90;99.90;;;;;;5080476;28;20044;-76
2021/12/31 23:21:21;;;;;;;26.55;16.65;;;0.90;99.90;;;;;;5082633;28;20044;-77
2021/12/31 23:23:49;;;;;;;45.00;28.17;;;0.80;99.90;;;;;;5086078;28;20047;-78
2021/12/31 23:26:17;;;;;;;29.25;18.75;;;0.80;99.90;;;;;;5062421;28;20044;-77
2021/12/31 23:28:45;;;;;;;31.08;19.10;;;0.90;99.90;;;;;;5088550;28;20043;-77
2021/12/31 23:31:16;;;;;;;30.90;20.23;;;0.90;99.90;;;;;;5083421;28;20052;-77
2021/12/31 23:33:45;;;;;;;22.40;14.23;;;0.90;99.90;;;;;;5054072;28;20044;-77
2021/12/31 23:36:13;;;;;;;16.20;11.57;;;0.90;99.90;;;;;;5076536;28;20059;-77
2021/12/31 23:38:44;;;;;;;15.85;10.82;;;0.80;99.90;;;;;;5068966;28;20052;-75
2021/12/31 23:41:20;;;;;;;15.73;9.77;;;0.80;99.90;;;;;;5076441;28;20101;-78
2021/12/31 23:43:55;;;;;;;13.45;9.23;;;0.80;99.90;;;;;;5073048;28;20428;-77
2021/12/31 23:46:23;;;;;;;15.32;10.85;;;0.70;99.90;;;;;;5083178;28;20427;-76
2021/12/31 23:48:50;;;;;;;23.13;14.55;;;0.70;99.90;;;;;;5068018;28;20537;-76
2021/12/31 23:51:19;;;;;;;21.80;12.80;;;0.70;99.90;;;;;;5068008;28;20060;-76
2021/12/31 23:53:48;;;;;;;13.70;9.52;;;0.70;99.90;;;;;;5084207;28;20046;-76
2021/12/31 23:56:15;;;;;;;13.57;8.65;;;0.70;99.90;;;;;;5085147;28;20409;-76
2021/12/31 23:58:43;;;;;;;11.68;8.02;;;0.70;99.90;;;;;;5088034;28;20062;-78
